sensor_id;sensor_type;location;lat;lon;timestamp;temperature;humidity
16032;DHT22;8120;48.308;8.914;2023-02-26T00:01:02;-2.40;80.10
16032;DHT22;8120;48.308;8.914;2023-02-26T00:03:31;-2.40;79.90
16032;DHT22;8120;48.308;8.914;2023-02-26T00:05:59;-2.50;79.60
16032;DHT22;8120;48.308;8.914;2023-02-26T00:08:27;-2.50;79.90
16032;DHT22;8120;48.308;8.914;2023-02-26T00:10:59;-2.50;79.30
16032;DHT22;8120;48.308;8.914;2023-02-26T00:13:29;-2.50;80.00
16032;DHT22;8120;48.308;8.914;2023-02-26T00:15:59;-2.50;80.00
16032;DHT22;8120;48.308;8.914;2023-02-26T00:18:27;-2.50;79.50
16032;DHT22;8120;48.308;8.914;2023-02-26T00:20:56;-2.50;79.50
16032;DHT22;8120;48.308;8.914;2023-02-26T00:23:24;-2.50;78.10
16032;DHT22;8120;48.308;8.914;2023-02-26T00:25:52;-2.50;78.00
16032;DHT22;8120;48.308;8.914;2023-02-26T00:28:21;-2.50;78.80
16032;DHT22;8120;48.308;8.914;2023-02-26T00:30:50;-2.50;78.30
16032;DHT22;8120;48.308;8.914;2023-02-26T00:33:18;-2.50;78.40
16032;DHT22;8120;48.308;8.914;2023-02-26T00:35:46;-2.50;78.10
16032;DHT22;8120;48.308;8.914;2023-02-26T00:38:15;-2.60;78.40
16032;DHT22;8120;48.308;8.914;2023-02-26T00:40:47;-2.60;77.30
16032;DHT22;8120;48.308;8.914;2023-02-26T00:43:17;-2.70;77.50
16032;DHT22;8120;48.308;8.914;2023-02-26T00:45:54;-2.70;77.60
16032;DHT22;8120;48.308;8.914;2023-02-26T00:48:39;-2.70;78.20
16032;DHT22;8120;48.308;8.914;2023-02-26T00:51:18;-2.70;77.80
16032;DHT22;8120;48.308;8.914;2023-02-26T00:53:52;-2.70;77.80
16032;DHT22;8120;48.308;8.914;2023-02-26T00:56:24;-2.70;78.40
16032;DHT22;8120;48.308;8.914;2023-02-26T00:58:52;-2.70;77.70
16032;DHT22;8120;48.308;8.914;2023-02-26T01:01:22;-2.70;78.00
16032;DHT22;8120;48.308;8.914;2023-02-26T01:03:50;-2.70;78.30
16032;DHT22;8120;48.308;8.914;2023-02-26T01:06:20;-2.70;78.20
16032;DHT22;8120;48.308;8.914;2023-02-26T01:08:53;-2.70;77.90
16032;DHT22;8120;48.308;8.914;2023-02-26T01:11:22;-2.70;78.50
16032;DHT22;8120;48.308;8.914;2023-02-26T01:13:50;-2.70;78.70
16032;DHT22;8120;48.308;8.914;2023-02-26T01:16:23;-2.70;78.80
16032;DHT22;8120;48.308;8.914;2023-02-26T01:19:00;-2.70;79.50
16032;DHT22;8120;48.308;8.914;2023-02-26T01:21:32;-2.70;79.80
16032;DHT22;8120;48.308;8.914;2023-02-26T01:24:05;-2.70;79.50
16032;DHT22;8120;48.308;8.914;2023-02-26T01:26:34;-2.70;80.20
16032;DHT22;8120;48.308;8.914;2023-02-26T01:29:02;-2.80;80.40
16032;DHT22;8120;48.308;8.914;2023-02-26T01:31:40;-2.90;81.30
16032;DHT22;8120;48.308;8.914;2023-02-26T01:34:18;-2.80;81.00
16032;DHT22;8120;48.308;8.914;2023-02-26T01:36:52;-2.80;81.30
16032;DHT22;8120;48.308;8.914;2023-02-26T01:39:27;-2.80;80.80
16032;DHT22;8120;48.308;8.914;2023-02-26T01:41:59;-2.70;81.30
16032;DHT22;8120;48.308;8.914;2023-02-26T01:44:35;-2.80;81.40
16032;DHT22;8120;48.308;8.914;2023-02-26T01:47:15;-2.80;81.70
16032;DHT22;8120;48.308;8.914;2023-02-26T01:49:45;-2.90;81.10
16032;DHT22;8120;48.308;8.914;2023-02-26T01:55:54;-2.90;81.10
16032;DHT22;8120;48.308;8.914;2023-02-26T01:58:24;-2.90;80.90
16032;DHT22;8120;48.308;8.914;2023-02-26T02:00:52;-2.90;81.50
16032;DHT22;8120;48.308;8.914;2023-02-26T02:03:23;-2.90;81.40
16032;DHT22;8120;48.308;8.914;2023-02-26T02:05:55;-2.90;81.70
16032;DHT22;8120;48.308;8.914;2023-02-26T02:08:24;-3.00;81.40
16032;DHT22;8120;48.308;8.914;2023-02-26T02:10:52;-3.00;81.80
16032;DHT22;8120;48.308;8.914;2023-02-26T02:13:34;-3.10;81.60
16032;DHT22;8120;48.308;8.914;2023-02-26T02:16:15;-3.10;81.70
16032;DHT22;8120;48.308;8.914;2023-02-26T02:18:51;-3.10;81.70
16032;DHT22;8120;48.308;8.914;2023-02-26T02:21:53;-3.10;82.00
16032;DHT22;8120;48.308;8.914;2023-02-26T02:24:40;-3.10;81.10
16032;DHT22;8120;48.308;8.914;2023-02-26T02:27:17;-3.20;81.20
16032;DHT22;8120;48.308;8.914;2023-02-26T02:30:08;-3.10;81.10
16032;DHT22;8120;48.308;8.914;2023-02-26T02:32:46;-3.20;81.00
16032;DHT22;8120;48.308;8.914;2023-02-26T02:35:20;-3.20;81.20
16032;DHT22;8120;48.308;8.914;2023-02-26T02:37:54;-3.30;81.20
16032;DHT22;8120;48.308;8.914;2023-02-26T02:40:26;-3.30;81.00
16032;DHT22;8120;48.308;8.914;2023-02-26T02:42:59;-3.30;81.20
16032;DHT22;8120;48.308;8.914;2023-02-26T02:45:32;-3.20;81.20
16032;DHT22;8120;48.308;8.914;2023-02-26T02:48:04;-3.20;81.10
16032;DHT22;8120;48.308;8.914;2023-02-26T02:50:38;-3.20;81.00
16032;DHT22;8120;48.308;8.914;2023-02-26T02:53:10;-3.20;80.70
16032;DHT22;8120;48.308;8.914;2023-02-26T02:55:43;-3.10;80.60
16032;DHT22;8120;48.308;8.914;2023-02-26T02:58:17;-3.10;80.10
16032;DHT22;8120;48.308;8.914;2023-02-26T03:00:50;-3.10;81.10
16032;DHT22;8120;48.308;8.914;2023-02-26T03:03:25;-3.10;81.20
16032;DHT22;8120;48.308;8.914;2023-02-26T03:05:54;-3.10;81.00
16032;DHT22;8120;48.308;8.914;2023-02-26T03:08:25;-3.20;81.00
16032;DHT22;8120;48.308;8.914;2023-02-26T03:10:54;-3.10;80.60
16032;DHT22;8120;48.308;8.914;2023-02-26T03:13:24;-3.10;80.40
16032;DHT22;8120;48.308;8.914;2023-02-26T03:16:03;-3.20;80.30
16032;DHT22;8120;48.308;8.914;2023-02-26T03:18:44;-3.20;80.40
16032;DHT22;8120;48.308;8.914;2023-02-26T03:21:21;-3.20;79.90
16032;DHT22;8120;48.308;8.914;2023-02-26T03:23:58;-3.20;80.20
16032;DHT22;8120;48.308;8.914;2023-02-26T03:26:31;-3.20;80.10
16032;DHT22;8120;48.308;8.914;2023-02-26T03:29:05;-3.30;80.80
16032;DHT22;8120;48.308;8.914;2023-02-26T03:31:39;-3.30;79.90
16032;DHT22;8120;48.308;8.914;2023-02-26T03:34:14;-3.30;80.10
16032;DHT22;8120;48.308;8.914;2023-02-26T03:36:47;-3.40;80.50
16032;DHT22;8120;48.308;8.914;2023-02-26T03:39:20;-3.40;80.50
16032;DHT22;8120;48.308;8.914;2023-02-26T03:41:54;-3.30;80.10
16032;DHT22;8120;48.308;8.914;2023-02-26T03:44:27;-3.30;79.70
16032;DHT22;8120;48.308;8.914;2023-02-26T03:46:59;-3.30;79.50
16032;DHT22;8120;48.308;8.914;2023-02-26T03:49:32;-3.30;80.00
16032;DHT22;8120;48.308;8.914;2023-02-26T03:52:01;-3.40;80.00
16032;DHT22;8120;48.308;8.914;2023-02-26T03:54:32;-3.50;80.40
16032;DHT22;8120;48.308;8.914;2023-02-26T03:57:02;-3.50;79.90
16032;DHT22;8120;48.308;8.914;2023-02-26T03:59:30;-3.50;79.10
16032;DHT22;8120;48.308;8.914;2023-02-26T04:02:01;-3.50;79.80
16032;DHT22;8120;48.308;8.914;2023-02-26T04:04:34;-3.60;79.50
16032;DHT22;8120;48.308;8.914;2023-02-26T04:07:08;-3.60;79.80
16032;DHT22;8120;48.308;8.914;2023-02-26T04:09:37;-3.70;80.20
16032;DHT22;8120;48.308;8.914;2023-02-26T04:12:07;-3.70;80.20
16032;DHT22;8120;48.308;8.914;2023-02-26T04:14:35;-3.80;80.70
16032;DHT22;8120;48.308;8.914;2023-02-26T04:17:03;-3.90;80.70
16032;DHT22;8120;48.308;8.914;2023-02-26T04:19:32;-4.00;81.20
16032;DHT22;8120;48.308;8.914;2023-02-26T04:22:00;-4.00;80.70
16032;DHT22;8120;48.308;8.914;2023-02-26T04:24:28;-4.10;80.90
16032;DHT22;8120;48.308;8.914;2023-02-26T04:26:56;-4.10;80.90
16032;DHT22;8120;48.308;8.914;2023-02-26T04:29:24;-4.20;81.00
16032;DHT22;8120;48.308;8.914;2023-02-26T04:31:51;-4.20;81.20
16032;DHT22;8120;48.308;8.914;2023-02-26T04:34:19;-4.20;81.10
16032;DHT22;8120;48.308;8.914;2023-02-26T04:36:49;-4.30;81.30
16032;DHT22;8120;48.308;8.914;2023-02-26T04:39:17;-4.40;81.20
16032;DHT22;8120;48.308;8.914;2023-02-26T04:41:45;-4.40;81.20
16032;DHT22;8120;48.308;8.914;2023-02-26T04:44:13;-4.40;81.40
16032;DHT22;8120;48.308;8.914;2023-02-26T04:46:40;-4.50;81.60
16032;DHT22;8120;48.308;8.914;2023-02-26T04:49:08;-4.50;81.50
16032;DHT22;8120;48.308;8.914;2023-02-26T04:51:36;-4.50;81.50
16032;DHT22;8120;48.308;8.914;2023-02-26T04:54:05;-4.50;81.70
16032;DHT22;8120;48.308;8.914;2023-02-26T04:56:33;-4.50;81.90
16032;DHT22;8120;48.308;8.914;2023-02-26T04:59:01;-4.60;82.30
16032;DHT22;8120;48.308;8.914;2023-02-26T05:01:29;-4.60;82.40
16032;DHT22;8120;48.308;8.914;2023-02-26T05:03:57;-4.60;82.50
16032;DHT22;8120;48.308;8.914;2023-02-26T05:06:25;-4.60;82.80
16032;DHT22;8120;48.308;8.914;2023-02-26T05:08:53;-4.60;83.20
16032;DHT22;8120;48.308;8.914;2023-02-26T05:11:22;-4.60;83.20
16032;DHT22;8120;48.308;8.914;2023-02-26T05:13:50;-4.60;83.10
16032;DHT22;8120;48.308;8.914;2023-02-26T05:16:18;-4.70;83.50
16032;DHT22;8120;48.308;8.914;2023-02-26T05:18:46;-4.80;84.00
16032;DHT22;8120;48.308;8.914;2023-02-26T05:21:14;-4.80;84.00
16032;DHT22;8120;48.308;8.914;2023-02-26T05:23:42;-4.80;84.20
16032;DHT22;8120;48.308;8.914;2023-02-26T05:26:10;-4.90;84.60
16032;DHT22;8120;48.308;8.914;2023-02-26T05:28:39;-4.90;84.70
16032;DHT22;8120;48.308;8.914;2023-02-26T05:31:07;-5.00;84.70
16032;DHT22;8120;48.308;8.914;2023-02-26T05:33:35;-4.90;85.10
16032;DHT22;8120;48.308;8.914;2023-02-26T05:36:03;-4.90;84.90
16032;DHT22;8120;48.308;8.914;2023-02-26T05:38:34;-4.80;85.00
16032;DHT22;8120;48.308;8.914;2023-02-26T05:41:03;-4.80;85.10
16032;DHT22;8120;48.308;8.914;2023-02-26T05:43:31;-4.80;85.10
16032;DHT22;8120;48.308;8.914;2023-02-26T05:46:01;-4.70;85.00
16032;DHT22;8120;48.308;8.914;2023-02-26T05:48:29;-4.70;85.20
16032;DHT22;8120;48.308;8.914;2023-02-26T05:51:04;-4.70;85.20
16032;DHT22;8120;48.308;8.914;2023-02-26T05:53:33;-4.70;85.20
16032;DHT22;8120;48.308;8.914;2023-02-26T05:56:01;-4.70;85.30
16032;DHT22;8120;48.308;8.914;2023-02-26T05:58:31;-4.70;85.20
16032;DHT22;8120;48.308;8.914;2023-02-26T06:01:01;-4.60;85.40
16032;DHT22;8120;48.308;8.914;2023-02-26T06:03:34;-4.60;85.50
16032;DHT22;8120;48.308;8.914;2023-02-26T06:06:01;-4.60;85.60
16032;DHT22;8120;48.308;8.914;2023-02-26T06:08:29;-4.60;85.40
16032;DHT22;8120;48.308;8.914;2023-02-26T06:10:57;-4.60;85.10
16032;DHT22;8120;48.308;8.914;2023-02-26T06:13:25;-4.50;85.10
16032;DHT22;8120;48.308;8.914;2023-02-26T06:15:53;-4.50;85.10
16032;DHT22;8120;48.308;8.914;2023-02-26T06:18:22;-4.50;85.10
16032;DHT22;8120;48.308;8.914;2023-02-26T06:20:50;-4.50;84.80
16032;DHT22;8120;48.308;8.914;2023-02-26T06:23:21;-4.50;85.10
16032;DHT22;8120;48.308;8.914;2023-02-26T06:25:50;-4.50;85.20
16032;DHT22;8120;48.308;8.914;2023-02-26T06:28:18;-4.50;85.30
16032;DHT22;8120;48.308;8.914;2023-02-26T06:30:46;-4.40;85.30
16032;DHT22;8120;48.308;8.914;2023-02-26T06:33:14;-4.40;85.40
16032;DHT22;8120;48.308;8.914;2023-02-26T06:35:43;-4.40;85.10
16032;DHT22;8120;48.308;8.914;2023-02-26T06:38:11;-4.40;84.70
16032;DHT22;8120;48.308;8.914;2023-02-26T06:40:39;-4.40;85.40
16032;DHT22;8120;48.308;8.914;2023-02-26T06:43:07;-4.30;85.20
16032;DHT22;8120;48.308;8.914;2023-02-26T06:45:35;-4.30;84.70
16032;DHT22;8120;48.308;8.914;2023-02-26T06:48:03;-4.40;84.90
16032;DHT22;8120;48.308;8.914;2023-02-26T06:50:31;-4.40;84.90
16032;DHT22;8120;48.308;8.914;2023-02-26T06:53:00;-4.30;84.80
16032;DHT22;8120;48.308;8.914;2023-02-26T06:55:28;-4.30;84.80
16032;DHT22;8120;48.308;8.914;2023-02-26T06:57:57;-4.30;85.00
16032;DHT22;8120;48.308;8.914;2023-02-26T07:00:25;-4.30;84.80
16032;DHT22;8120;48.308;8.914;2023-02-26T07:02:53;-4.20;84.40
16032;DHT22;8120;48.308;8.914;2023-02-26T07:05:21;-4.10;84.80
16032;DHT22;8120;48.308;8.914;2023-02-26T07:07:49;-4.20;83.50
16032;DHT22;8120;48.308;8.914;2023-02-26T07:10:18;-4.30;83.60
16032;DHT22;8120;48.308;8.914;2023-02-26T07:12:47;-4.20;84.20
16032;DHT22;8120;48.308;8.914;2023-02-26T07:15:15;-4.20;84.60
16032;DHT22;8120;48.308;8.914;2023-02-26T07:17:43;-4.20;84.40
16032;DHT22;8120;48.308;8.914;2023-02-26T07:20:11;-4.30;84.50
16032;DHT22;8120;48.308;8.914;2023-02-26T07:22:40;-4.20;84.60
16032;DHT22;8120;48.308;8.914;2023-02-26T07:25:08;-4.10;85.00
16032;DHT22;8120;48.308;8.914;2023-02-26T07:27:38;-4.10;84.80
16032;DHT22;8120;48.308;8.914;2023-02-26T07:30:10;-4.00;84.60
16032;DHT22;8120;48.308;8.914;2023-02-26T07:32:38;-4.00;84.10
16032;DHT22;8120;48.308;8.914;2023-02-26T07:35:06;-3.90;83.80
16032;DHT22;8120;48.308;8.914;2023-02-26T07:37:34;-3.90;84.20
16032;DHT22;8120;48.308;8.914;2023-02-26T07:40:03;-3.70;84.90
16032;DHT22;8120;48.308;8.914;2023-02-26T07:42:31;-3.50;84.60
16032;DHT22;8120;48.308;8.914;2023-02-26T07:45:00;-3.60;83.30
16032;DHT22;8120;48.308;8.914;2023-02-26T07:47:28;-3.70;84.10
16032;DHT22;8120;48.308;8.914;2023-02-26T07:49:56;-3.80;83.90
16032;DHT22;8120;48.308;8.914;2023-02-26T07:52:24;-3.90;84.50
16032;DHT22;8120;48.308;8.914;2023-02-26T07:54:52;-3.60;84.20
16032;DHT22;8120;48.308;8.914;2023-02-26T07:57:20;-3.20;82.10
16032;DHT22;8120;48.308;8.914;2023-02-26T07:59:47;-3.10;81.60
16032;DHT22;8120;48.308;8.914;2023-02-26T08:02:17;-3.00;79.90
16032;DHT22;8120;48.308;8.914;2023-02-26T08:04:44;-3.30;80.80
16032;DHT22;8120;48.308;8.914;2023-02-26T08:07:12;-3.50;83.20
16032;DHT22;8120;48.308;8.914;2023-02-26T08:09:40;-3.80;83.40
16032;DHT22;8120;48.308;8.914;2023-02-26T08:12:08;-3.80;84.60
16032;DHT22;8120;48.308;8.914;2023-02-26T08:14:36;-3.50;85.50
16032;DHT22;8120;48.308;8.914;2023-02-26T08:17:05;-3.60;83.80
16032;DHT22;8120;48.308;8.914;2023-02-26T08:19:34;-3.70;83.90
16032;DHT22;8120;48.308;8.914;2023-02-26T08:22:02;-3.60;82.80
16032;DHT22;8120;48.308;8.914;2023-02-26T08:24:30;-3.60;82.90
16032;DHT22;8120;48.308;8.914;2023-02-26T08:27:00;-3.70;83.50
16032;DHT22;8120;48.308;8.914;2023-02-26T08:29:30;-3.70;85.00
16032;DHT22;8120;48.308;8.914;2023-02-26T08:31:58;-3.60;83.40
16032;DHT22;8120;48.308;8.914;2023-02-26T08:34:26;-3.60;82.40
16032;DHT22;8120;48.308;8.914;2023-02-26T08:36:55;-3.80;82.10
16032;DHT22;8120;48.308;8.914;2023-02-26T08:39:23;-3.80;82.40
16032;DHT22;8120;48.308;8.914;2023-02-26T08:41:51;-3.80;81.40
16032;DHT22;8120;48.308;8.914;2023-02-26T08:44:18;-3.80;80.60
16032;DHT22;8120;48.308;8.914;2023-02-26T08:46:46;-3.90;80.00
16032;DHT22;8120;48.308;8.914;2023-02-26T08:49:14;-3.70;80.00
16032;DHT22;8120;48.308;8.914;2023-02-26T08:51:42;-3.80;79.80
16032;DHT22;8120;48.308;8.914;2023-02-26T08:54:11;-3.70;79.30
16032;DHT22;8120;48.308;8.914;2023-02-26T08:56:39;-3.70;78.90
16032;DHT22;8120;48.308;8.914;2023-02-26T08:59:07;-3.60;79.50
16032;DHT22;8120;48.308;8.914;2023-02-26T09:01:37;-3.50;80.20
16032;DHT22;8120;48.308;8.914;2023-02-26T09:04:05;-3.40;80.00
16032;DHT22;8120;48.308;8.914;2023-02-26T09:06:33;-3.20;78.10
16032;DHT22;8120;48.308;8.914;2023-02-26T09:09:01;-3.00;77.00
16032;DHT22;8120;48.308;8.914;2023-02-26T09:11:30;-3.00;76.80
16032;DHT22;8120;48.308;8.914;2023-02-26T09:13:58;-2.80;77.60
16032;DHT22;8120;48.308;8.914;2023-02-26T09:16:28;-2.50;75.00
16032;DHT22;8120;48.308;8.914;2023-02-26T09:18:56;-2.50;75.10
16032;DHT22;8120;48.308;8.914;2023-02-26T09:21:24;-2.20;73.40
16032;DHT22;8120;48.308;8.914;2023-02-26T09:23:52;-2.10;73.70
16032;DHT22;8120;48.308;8.914;2023-02-26T09:26:19;-2.50;76.30
16032;DHT22;8120;48.308;8.914;2023-02-26T09:28:48;-3.00;80.70
16032;DHT22;8120;48.308;8.914;2023-02-26T09:31:16;-3.40;82.80
16032;DHT22;8120;48.308;8.914;2023-02-26T09:33:44;-3.70;85.20
16032;DHT22;8120;48.308;8.914;2023-02-26T09:36:12;-3.70;86.10
16032;DHT22;8120;48.308;8.914;2023-02-26T09:38:40;-3.60;85.70
16032;DHT22;8120;48.308;8.914;2023-02-26T09:41:18;-3.60;82.90
16032;DHT22;8120;48.308;8.914;2023-02-26T09:44:14;-3.50;82.10
16032;DHT22;8120;48.308;8.914;2023-02-26T09:46:50;-3.40;82.00
16032;DHT22;8120;48.308;8.914;2023-02-26T09:49:27;-3.50;80.30
16032;DHT22;8120;48.308;8.914;2023-02-26T09:51:59;-3.50;80.70
16032;DHT22;8120;48.308;8.914;2023-02-26T09:54:31;-3.30;79.50
16032;DHT22;8120;48.308;8.914;2023-02-26T09:57:00;-3.00;78.20
16032;DHT22;8120;48.308;8.914;2023-02-26T09:59:32;-2.90;76.80
16032;DHT22;8120;48.308;8.914;2023-02-26T10:02:04;-3.10;75.70
16032;DHT22;8120;48.308;8.914;2023-02-26T10:04:50;-3.10;75.70
16032;DHT22;8120;48.308;8.914;2023-02-26T10:07:30;-3.00;74.40
16032;DHT22;8120;48.308;8.914;2023-02-26T10:10:12;-3.00;73.20
16032;DHT22;8120;48.308;8.914;2023-02-26T10:12:43;-2.80;73.30
16032;DHT22;8120;48.308;8.914;2023-02-26T10:15:18;-2.70;74.00
16032;DHT22;8120;48.308;8.914;2023-02-26T10:17:56;-2.70;73.20
16032;DHT22;8120;48.308;8.914;2023-02-26T10:20:29;-2.70;73.30
16032;DHT22;8120;48.308;8.914;2023-02-26T10:23:03;-2.70;72.00
16032;DHT22;8120;48.308;8.914;2023-02-26T10:25:35;-2.50;72.90
16032;DHT22;8120;48.308;8.914;2023-02-26T10:28:15;-2.30;72.10
16032;DHT22;8120;48.308;8.914;2023-02-26T10:30:51;-2.40;70.90
16032;DHT22;8120;48.308;8.914;2023-02-26T10:33:29;-2.40;70.80
16032;DHT22;8120;48.308;8.914;2023-02-26T10:36:06;-2.50;70.30
16032;DHT22;8120;48.308;8.914;2023-02-26T10:38:36;-2.60;71.80
16032;DHT22;8120;48.308;8.914;2023-02-26T10:41:09;-2.40;71.10
16032;DHT22;8120;48.308;8.914;2023-02-26T10:43:40;-2.10;70.20
16032;DHT22;8120;48.308;8.914;2023-02-26T10:46:22;-2.10;71.20
16032;DHT22;8120;48.308;8.914;2023-02-26T10:49:06;-2.20;70.20
16032;DHT22;8120;48.308;8.914;2023-02-26T10:51:40;-2.00;71.40
16032;DHT22;8120;48.308;8.914;2023-02-26T10:54:14;-2.10;71.70
16032;DHT22;8120;48.308;8.914;2023-02-26T10:56:43;-2.20;72.10
16032;DHT22;8120;48.308;8.914;2023-02-26T10:59:11;-2.10;72.30
16032;DHT22;8120;48.308;8.914;2023-02-26T11:01:44;-2.20;71.80
16032;DHT22;8120;48.308;8.914;2023-02-26T11:04:14;-2.20;72.30
16032;DHT22;8120;48.308;8.914;2023-02-26T11:06:47;-2.30;72.40
16032;DHT22;8120;48.308;8.914;2023-02-26T11:09:19;-2.10;72.50
16032;DHT22;8120;48.308;8.914;2023-02-26T11:11:51;-2.00;72.10
16032;DHT22;8120;48.308;8.914;2023-02-26T11:14:19;-1.60;69.90
16032;DHT22;8120;48.308;8.914;2023-02-26T11:16:52;-1.60;69.30
16032;DHT22;8120;48.308;8.914;2023-02-26T11:19:25;-1.80;69.40
16032;DHT22;8120;48.308;8.914;2023-02-26T11:21:54;-2.00;69.80
16032;DHT22;8120;48.308;8.914;2023-02-26T11:24:28;-2.00;70.10
16032;DHT22;8120;48.308;8.914;2023-02-26T11:26:58;-2.10;69.70
16032;DHT22;8120;48.308;8.914;2023-02-26T11:29:35;-2.30;70.40
16032;DHT22;8120;48.308;8.914;2023-02-26T11:32:06;-2.40;70.80
16032;DHT22;8120;48.308;8.914;2023-02-26T11:34:45;-2.30;71.90
16032;DHT22;8120;48.308;8.914;2023-02-26T11:37:17;-2.20;71.20
16032;DHT22;8120;48.308;8.914;2023-02-26T11:39:46;-2.10;72.50
16032;DHT22;8120;48.308;8.914;2023-02-26T11:42:15;-1.90;71.60
16032;DHT22;8120;48.308;8.914;2023-02-26T11:44:45;-2.00;71.10
16032;DHT22;8120;48.308;8.914;2023-02-26T11:47:16;-2.20;71.90
16032;DHT22;8120;48.308;8.914;2023-02-26T11:49:50;-2.30;73.40
16032;DHT22;8120;48.308;8.914;2023-02-26T11:52:20;-2.10;73.40
16032;DHT22;8120;48.308;8.914;2023-02-26T11:54:50;-2.20;73.60
16032;DHT22;8120;48.308;8.914;2023-02-26T11:57:24;-2.20;74.10
16032;DHT22;8120;48.308;8.914;2023-02-26T11:59:54;-2.40;75.10
16032;DHT22;8120;48.308;8.914;2023-02-26T12:02:25;-2.30;74.60
16032;DHT22;8120;48.308;8.914;2023-02-26T12:04:58;-2.10;74.60
16032;DHT22;8120;48.308;8.914;2023-02-26T12:07:28;-2.20;74.10
16032;DHT22;8120;48.308;8.914;2023-02-26T12:09:56;-2.10;73.70
16032;DHT22;8120;48.308;8.914;2023-02-26T12:12:45;-2.10;74.30
16032;DHT22;8120;48.308;8.914;2023-02-26T12:15:22;-1.90;74.90
16032;DHT22;8120;48.308;8.914;2023-02-26T12:18:20;-1.80;74.20
16032;DHT22;8120;48.308;8.914;2023-02-26T12:20:58;-1.80;74.00
16032;DHT22;8120;48.308;8.914;2023-02-26T12:26:32;-2.20;75.30
16032;DHT22;8120;48.308;8.914;2023-02-26T12:29:20;-2.00;75.00
16032;DHT22;8120;48.308;8.914;2023-02-26T12:32:16;-1.80;74.40
16032;DHT22;8120;48.308;8.914;2023-02-26T12:35:14;-1.80;73.80
16032;DHT22;8120;48.308;8.914;2023-02-26T12:37:51;-1.70;73.60
16032;DHT22;8120;48.308;8.914;2023-02-26T12:40:46;-1.70;74.60
16032;DHT22;8120;48.308;8.914;2023-02-26T12:43:25;-1.70;74.50
16032;DHT22;8120;48.308;8.914;2023-02-26T12:46:06;-1.50;74.30
16032;DHT22;8120;48.308;8.914;2023-02-26T12:49:00;-1.60;75.40
16032;DHT22;8120;48.308;8.914;2023-02-26T12:51:44;-1.60;75.30
16032;DHT22;8120;48.308;8.914;2023-02-26T12:54:29;-1.40;75.50
16032;DHT22;8120;48.308;8.914;2023-02-26T12:57:25;-1.30;74.90
16032;DHT22;8120;48.308;8.914;2023-02-26T13:00:18;-1.20;75.10
16032;DHT22;8120;48.308;8.914;2023-02-26T13:03:17;-1.40;77.60
16032;DHT22;8120;48.308;8.914;2023-02-26T13:06:10;-1.90;83.40
16032;DHT22;8120;48.308;8.914;2023-02-26T13:08:50;-1.70;82.70
16032;DHT22;8120;48.308;8.914;2023-02-26T13:11:32;-1.40;82.20
16032;DHT22;8120;48.308;8.914;2023-02-26T13:14:20;-1.60;82.40
16032;DHT22;8120;48.308;8.914;2023-02-26T13:16:53;-1.80;82.80
16032;DHT22;8120;48.308;8.914;2023-02-26T13:19:32;-1.60;83.80
16032;DHT22;8120;48.308;8.914;2023-02-26T13:22:05;-1.40;82.40
16032;DHT22;8120;48.308;8.914;2023-02-26T13:24:42;-1.30;81.60
16032;DHT22;8120;48.308;8.914;2023-02-26T13:27:13;-1.40;83.70
16032;DHT22;8120;48.308;8.914;2023-02-26T13:29:46;-1.40;82.70
16032;DHT22;8120;48.308;8.914;2023-02-26T13:32:17;-1.30;82.20
16032;DHT22;8120;48.308;8.914;2023-02-26T13:34:51;-1.20;79.90
16032;DHT22;8120;48.308;8.914;2023-02-26T13:37:23;-1.00;79.80
16032;DHT22;8120;48.308;8.914;2023-02-26T13:40:04;-0.90;79.20
16032;DHT22;8120;48.308;8.914;2023-02-26T13:42:45;-1.20;78.90
16032;DHT22;8120;48.308;8.914;2023-02-26T13:45:26;-1.00;79.70
16032;DHT22;8120;48.308;8.914;2023-02-26T13:48:08;-0.70;77.60
16032;DHT22;8120;48.308;8.914;2023-02-26T13:50:42;-1.30;79.80
16032;DHT22;8120;48.308;8.914;2023-02-26T13:53:34;-1.50;80.30
16032;DHT22;8120;48.308;8.914;2023-02-26T13:56:13;-1.80;81.00
16032;DHT22;8120;48.308;8.914;2023-02-26T13:58:42;-1.70;80.90
16032;DHT22;8120;48.308;8.914;2023-02-26T14:01:15;-1.50;80.20
16032;DHT22;8120;48.308;8.914;2023-02-26T14:03:49;-1.60;79.70
16032;DHT22;8120;48.308;8.914;2023-02-26T14:06:45;-1.60;81.30
16032;DHT22;8120;48.308;8.914;2023-02-26T14:09:36;-1.80;81.80
16032;DHT22;8120;48.308;8.914;2023-02-26T14:12:25;-2.20;83.90
16032;DHT22;8120;48.308;8.914;2023-02-26T14:15:27;-2.40;85.80
16032;DHT22;8120;48.308;8.914;2023-02-26T14:18:04;-2.20;85.30
16032;DHT22;8120;48.308;8.914;2023-02-26T14:20:34;-1.80;83.30
16032;DHT22;8120;48.308;8.914;2023-02-26T14:23:21;-1.60;81.50
16032;DHT22;8120;48.308;8.914;2023-02-26T14:25:55;-1.60;81.30
16032;DHT22;8120;48.308;8.914;2023-02-26T14:28:41;-1.50;79.60
16032;DHT22;8120;48.308;8.914;2023-02-26T14:31:18;-1.60;80.50
16032;DHT22;8120;48.308;8.914;2023-02-26T14:33:59;-1.70;81.30
16032;DHT22;8120;48.308;8.914;2023-02-26T14:36:34;-1.90;83.00
16032;DHT22;8120;48.308;8.914;2023-02-26T14:39:05;-2.30;86.20
16032;DHT22;8120;48.308;8.914;2023-02-26T14:41:38;-2.70;90.30
16032;DHT22;8120;48.308;8.914;2023-02-26T14:44:14;-2.70;91.40
16032;DHT22;8120;48.308;8.914;2023-02-26T14:46:44;-2.60;91.60
16032;DHT22;8120;48.308;8.914;2023-02-26T14:49:16;-2.50;88.70
16032;DHT22;8120;48.308;8.914;2023-02-26T14:51:53;-2.40;86.60
16032;DHT22;8120;48.308;8.914;2023-02-26T14:54:42;-2.20;84.70
16032;DHT22;8120;48.308;8.914;2023-02-26T14:57:21;-1.50;82.40
16032;DHT22;8120;48.308;8.914;2023-02-26T15:00:03;-1.10;76.80
16032;DHT22;8120;48.308;8.914;2023-02-26T15:02:52;-1.20;77.40
16032;DHT22;8120;48.308;8.914;2023-02-26T15:05:35;-1.30;76.10
16032;DHT22;8120;48.308;8.914;2023-02-26T15:08:27;-1.40;75.20
16032;DHT22;8120;48.308;8.914;2023-02-26T15:14:15;-1.40;74.20
16032;DHT22;8120;48.308;8.914;2023-02-26T15:16:54;-1.40;74.50
16032;DHT22;8120;48.308;8.914;2023-02-26T15:19:39;-1.40;74.50
16032;DHT22;8120;48.308;8.914;2023-02-26T15:22:27;-1.20;72.10
16032;DHT22;8120;48.308;8.914;2023-02-26T15:24:58;-1.10;71.50
16032;DHT22;8120;48.308;8.914;2023-02-26T15:27:30;-0.90;70.70
16032;DHT22;8120;48.308;8.914;2023-02-26T15:29:59;-0.80;70.60
16032;DHT22;8120;48.308;8.914;2023-02-26T15:32:29;-1.00;70.40
16032;DHT22;8120;48.308;8.914;2023-02-26T15:34:59;-1.20;72.30
16032;DHT22;8120;48.308;8.914;2023-02-26T15:37:29;-1.70;78.10
16032;DHT22;8120;48.308;8.914;2023-02-26T15:39:59;-2.10;78.00
16032;DHT22;8120;48.308;8.914;2023-02-26T15:42:33;-2.10;76.80
16032;DHT22;8120;48.308;8.914;2023-02-26T15:45:08;-2.10;77.70
16032;DHT22;8120;48.308;8.914;2023-02-26T15:47:40;-2.20;79.40
16032;DHT22;8120;48.308;8.914;2023-02-26T15:50:13;-2.20;77.30
16032;DHT22;8120;48.308;8.914;2023-02-26T15:52:41;-2.20;76.10
16032;DHT22;8120;48.308;8.914;2023-02-26T15:55:14;-2.10;75.10
16032;DHT22;8120;48.308;8.914;2023-02-26T15:57:43;-2.10;73.70
16032;DHT22;8120;48.308;8.914;2023-02-26T16:00:15;-2.10;73.70
16032;DHT22;8120;48.308;8.914;2023-02-26T16:02:52;-2.00;72.00
16032;DHT22;8120;48.308;8.914;2023-02-26T16:05:24;-1.80;70.90
16032;DHT22;8120;48.308;8.914;2023-02-26T16:07:52;-1.60;70.50
16032;DHT22;8120;48.308;8.914;2023-02-26T16:10:30;-1.50;70.20
16032;DHT22;8120;48.308;8.914;2023-02-26T16:12:59;-1.40;69.80
16032;DHT22;8120;48.308;8.914;2023-02-26T16:15:31;-1.40;69.50
16032;DHT22;8120;48.308;8.914;2023-02-26T16:18:02;-1.30;69.80
16032;DHT22;8120;48.308;8.914;2023-02-26T16:20:35;-1.60;72.70
16032;DHT22;8120;48.308;8.914;2023-02-26T16:23:08;-2.00;76.20
16032;DHT22;8120;48.308;8.914;2023-02-26T16:25:39;-2.10;78.90
16032;DHT22;8120;48.308;8.914;2023-02-26T16:28:13;-2.10;74.90
16032;DHT22;8120;48.308;8.914;2023-02-26T16:30:43;-2.00;73.60